Time;durP1;ratioP1;P1;durP2;ratioP2;P2;SDS_P1;SDS_P2;PMS_P1;PMS_P2;Temp;Humidity;BMP_temperature;BMP_pressure;BME280_temperature;BME280_humidity;BME280_pressure;Samples;Min_cycle;Max_cycle;Signal;HPM_P1;HPM_P2
2024/02/26 00:01:03;;;;;;;;;;;;;;;2.38;100.00;99549.75;6160146;23;19913;-78
2024/02/26 00:03:28;;;;;;;;;;;;;;;2.33;100.00;99553.94;6161737;23;19968;-78
2024/02/26 00:05:53;;;;;;;;;;;;;;;2.30;100.00;99548.97;6165215;23;19920;-78
2024/02/26 00:08:18;;;;;;;;;;;;;;;2.26;100.00;99552.00;6166592;23;19917;-79
2024/02/26 00:10:46;;;;;;;;;;;;;;;2.27;100.00;99545.69;6168723;23;19931;-78
2024/02/26 00:13:11;;;;;;;;;;;;;;;2.25;100.00;99536.22;6174696;23;19920;-77
2024/02/26 00:15:40;;;;;;;;;;;;;;;2.27;100.00;99537.72;6173344;23;19952;-78
2024/02/26 00:18:05;;;;;;;;;;;;;;;2.25;100.00;99537.06;6173408;23;19965;-77
2024/02/26 00:20:34;;;;;;;;;;;;;;;2.27;100.00;99535.06;6163378;23;19913;-78
2024/02/26 00:22:59;;;;;;;;;;;;;;;2.24;100.00;99535.41;6158294;23;19945;-78
2024/02/26 00:25:25;;;;;;;;;;;;;;;2.22;100.00;99534.75;6158100;23;20329;-79
2024/02/26 00:27:50;;;;;;;;;;;;;;;2.22;100.00;99532.09;6159456;23;20274;-79
2024/02/26 00:30:15;;;;;;;;;;;;;;;2.25;100.00;99534.41;6157553;23;20271;-79
2024/02/26 00:32:40;;;;;;;;;;;;;;;2.24;100.00;99538.06;6156657;23;20328;-78
2024/02/26 00:35:06;;;;;;;;;;;;;;;2.25;100.00;99531.75;6155571;23;20234;-78
2024/02/26 00:37:31;;;;;;;;;;;;;;;2.23;100.00;99533.75;6154894;23;19913;-78
2024/02/26 00:39:56;;;;;;;;;;;;;;;2.30;100.00;99536.53;6154388;23;19913;-77
2024/02/26 00:42:21;;;;;;;;;;;;;;;2.31;100.00;99534.69;6154910;23;19920;-78
2024/02/26 00:44:50;;;;;;;;;;;;;;;2.33;100.00;99538.00;6154435;23;19912;-78
2024/02/26 00:47:15;;;;;;;;;;;;;;;2.32;100.00;99533.69;6154295;23;20249;-78
2024/02/26 00:49:40;;;;;;;;;;;;;;;2.30;100.00;99533.03;6155454;23;20000;-78
2024/02/26 00:52:11;;;;;;;;;;;;;;;2.36;100.00;99532.34;6154254;23;19940;-79
2024/02/26 00:54:36;;;;;;;;;;;;;;;2.36;100.00;99548.28;6154692;23;20329;-79
2024/02/26 00:57:02;;;;;;;;;;;;;;;2.35;100.00;99533.34;6155289;23;19967;-78
2024/02/26 00:59:27;;;;;;;;;;;;;;;2.32;100.00;99529.22;6154524;23;19966;-79
2024/02/26 01:01:52;;;;;;;;;;;;;;;2.35;100.00;99528.03;6155171;23;20397;-79
2024/02/26 01:04:17;;;;;;;;;;;;;;;2.34;100.00;99524.56;6154913;23;20342;-79
2024/02/26 01:06:43;;;;;;;;;;;;;;;2.35;100.00;99533.34;6155041;23;20246;-78
2024/02/26 01:09:08;;;;;;;;;;;;;;;2.36;100.00;99538.50;6154572;23;20179;-79
2024/02/26 01:11:33;;;;;;;;;;;;;;;2.38;100.00;99538.31;6155076;23;19967;-79
2024/02/26 01:13:58;;;;;;;;;;;;;;;2.40;100.00;99542.44;6155382;23;19913;-79
2024/02/26 01:16:24;;;;;;;;;;;;;;;2.39;100.00;99545.28;6154307;23;19920;-79
2024/02/26 01:18:49;;;;;;;;;;;;;;;2.37;100.00;99545.47;6154968;23;20079;-78
2024/02/26 01:21:14;;;;;;;;;;;;;;;2.39;100.00;99538.13;6154890;23;20249;-79
2024/02/26 01:23:42;;;;;;;;;;;;;;;2.39;100.00;99538.13;6156817;23;20290;-79
2024/02/26 01:26:07;;;;;;;;;;;;;;;2.41;100.00;99532.66;6156269;23;19913;-79
2024/02/26 01:28:32;;;;;;;;;;;;;;;2.40;100.00;99531.81;6158197;23;19975;-79
2024/02/26 01:30:59;;;;;;;;;;;;;;;2.45;100.00;99531.31;6156890;23;20348;-79
2024/02/26 01:33:25;;;;;;;;;;;;;;;2.50;100.00;99520.13;6157458;23;19939;-78
2024/02/26 01:35:50;;;;;;;;;;;;;;;2.49;100.00;99521.16;6157087;23;20314;-78
2024/02/26 01:38:16;;;;;;;;;;;;;;;2.49;100.00;99527.25;6155962;23;19913;-78
2024/02/26 01:40:41;;;;;;;;;;;;;;;2.52;100.00;99534.88;6157652;23;19972;-79
2024/02/26 01:43:06;;;;;;;;;;;;;;;2.55;100.00;99521.25;6157153;23;19913;-78
2024/02/26 01:45:33;;;;;;;;;;;;;;;2.60;100.00;99520.72;6155814;23;19928;-79
2024/02/26 01:47:58;;;;;;;;;;;;;;;2.60;100.00;99520.72;6155770;23;20242;-79
2024/02/26 01:50:24;;;;;;;;;;;;;;;2.64;100.00;99532.66;6157218;23;19916;-78
2024/02/26 01:52:49;;;;;;;;;;;;;;;2.65;100.00;99536.97;6138520;23;19917;-79
2024/02/26 01:55:18;;;;;;;;;;;;;;;2.67;100.00;99542.94;6156397;23;19943;-78
2024/02/26 01:57:43;;;;;;;;;;;;;;;2.70;100.00;99547.88;6157653;23;20024;-79
2024/02/26 02:00:09;;;;;;;;;;;;;;;2.73;100.00;99560.81;6156183;23;19920;-78
2024/02/26 02:02:34;;;;;;;;;;;;;;;2.74;100.00;99564.28;6157072;23;19987;-78
2024/02/26 02:04:59;;;;;;;;;;;;;;;2.77;100.00;99571.91;6157910;23;19935;-79
2024/02/26 02:07:24;;;;;;;;;;;;;;;2.79;100.00;99577.88;6156469;23;19916;-79
2024/02/26 02:09:50;;;;;;;;;;;;;;;2.80;100.00;99582.19;6156206;23;19916;-78
2024/02/26 02:12:15;;;;;;;;;;;;;;;2.84;100.00;99578.16;6157859;23;19927;-79
2024/02/26 02:14:41;;;;;;;;;;;;;;;2.81;100.00;99573.22;6154229;23;19913;-79
2024/02/26 02:17:06;;;;;;;;;;;;;;;2.79;100.00;99577.03;6157205;23;19946;-78
2024/02/26 02:19:31;;;;;;;;;;;;;;;2.78;100.00;99572.72;6156313;23;19912;-78
2024/02/26 02:21:56;;;;;;;;;;;;;;;2.80;100.00;99571.56;6157384;23;19991;-78
2024/02/26 02:24:29;;;;;;;;;;;;;;;2.80;100.00;99566.25;6160207;23;19967;-78
2024/02/26 02:26:55;;;;;;;;;;;;;;;2.82;100.00;99574.88;6173752;23;19924;-78
2024/02/26 02:29:29;;;;;;;;;;;;;;;2.80;100.00;99573.38;6172251;23;19952;-79
2024/02/26 02:31:54;;;;;;;;;;;;;;;2.82;100.00;99569.56;6172063;23;20146;-79
2024/02/26 02:34:20;;;;;;;;;;;;;;;2.86;100.00;99562.88;6164531;23;19913;-78
2024/02/26 02:36:49;;;;;;;;;;;;;;;2.88;100.00;99565.34;6158856;23;19928;-79
2024/02/26 02:39:15;;;;;;;;;;;;;;;2.90;100.00;99565.16;6158061;23;19917;-79
2024/02/26 02:41:40;;;;;;;;;;;;;;;2.91;100.00;99569.47;6157921;23;20571;-79
2024/02/26 02:44:05;;;;;;;;;;;;;;;2.91;100.00;99575.63;6157448;23;19943;-79
2024/02/26 02:46:33;;;;;;;;;;;;;;;2.94;100.00;99582.41;6156207;23;19913;-79
2024/02/26 02:48:58;;;;;;;;;;;;;;;2.93;100.00;99588.75;6157863;23;20215;-79
2024/02/26 02:51:23;;;;;;;;;;;;;;;2.98;100.00;99591.69;6156870;23;19931;-79
2024/02/26 02:53:49;;;;;;;;;;;;;;;2.96;100.00;99591.84;6168690;23;19917;-79
2024/02/26 02:56:14;;;;;;;;;;;;;;;2.94;100.00;99590.41;6167930;23;19921;-79
2024/02/26 02:58:39;;;;;;;;;;;;;;;2.97;100.00;99593.50;6172464;23;19940;-79
2024/02/26 03:01:07;;;;;;;;;;;;;;;2.95;100.00;99592.06;6163952;23;19920;-78
2024/02/26 03:03:33;;;;;;;;;;;;;;;2.92;100.00;99585.25;6158563;23;20098;-78
2024/02/26 03:05:58;;;;;;;;;;;;;;;2.95;100.00;99592.06;6158100;23;19912;-78
2024/02/26 03:08:25;;;;;;;;;;;;;;;2.95;100.00;99586.75;6157230;23;19917;-79
2024/02/26 03:10:50;;;;;;;;;;;;;;;2.97;100.00;99587.38;6155068;23;20016;-77
2024/02/26 03:13:16;;;;;;;;;;;;;;;2.97;100.00;99592.69;6157884;23;19913;-78
2024/02/26 03:15:41;;;;;;;;;;;;;;;2.97;100.00;99584.72;6157397;23;20338;-78
2024/02/26 03:18:06;;;;;;;;;;;;;;;2.99;100.00;99590.69;6164998;23;19916;-77
2024/02/26 03:20:31;;;;;;;;;;;;;;;2.97;100.00;99585.53;6170775;23;19927;-78
2024/02/26 03:22:56;;;;;;;;;;;;;;;3.02;100.00;99585.00;6171959;23;19921;-78
2024/02/26 03:25:22;;;;;;;;;;;;;;;2.96;100.00;99591.84;6168231;23;19917;-78
2024/02/26 03:27:53;;;;;;;;;;;;;;;2.94;100.00;99588.56;6162963;23;19916;-78
2024/02/26 03:30:35;;;;;;;;;;;;;;;2.97;100.00;99587.38;6130307;23;19925;-79
2024/02/26 03:33:00;;;;;;;;;;;;;;;2.99;100.00;99596.00;6158977;23;19916;-79
2024/02/26 03:35:25;;;;;;;;;;;;;;;3.01;100.00;99591.31;6163073;23;20309;-78
2024/02/26 03:37:56;;;;;;;;;;;;;;;2.96;100.00;99583.06;6166090;23;19913;-78
2024/02/26 03:40:21;;;;;;;;;;;;;;;2.98;100.00;99599.69;6139907;23;20050;-79
2024/02/26 03:42:47;;;;;;;;;;;;;;;2.97;100.00;99598.03;6176015;23;19916;-79
2024/02/26 03:45:12;;;;;;;;;;;;;;;2.94;100.00;99599.19;6177196;23;19927;-79
2024/02/26 03:47:37;;;;;;;;;;;;;;;2.95;100.00;99594.72;6180805;23;19917;-79
2024/02/26 03:50:03;;;;;;;;;;;;;;;2.96;100.00;99607.81;6171337;23;19999;-79
2024/02/26 03:52:29;;;;;;;;;;;;;;;2.94;100.00;99603.69;6160881;23;20371;-78
2024/02/26 03:54:54;;;;;;;;;;;;;;;2.90;100.00;99605.88;6159923;23;20011;-80
2024/02/26 03:57:19;;;;;;;;;;;;;;;2.94;100.00;99603.69;6159508;23;19912;-79
2024/02/26 03:59:44;;;;;;;;;;;;;;;2.92;100.00;99616.31;6159265;23;19913;-79
2024/02/26 04:02:10;;;;;;;;;;;;;;;2.88;100.00;99611.34;6157932;23;20033;-79
2024/02/26 04:04:35;;;;;;;;;;;;;;;2.90;100.00;99613.00;6156936;23;19913;-79
2024/02/26 04:07:00;;;;;;;;;;;;;;;2.92;100.00;99625.13;6153621;23;19912;-78
2024/02/26 04:09:25;;;;;;;;;;;;;;;2.88;100.00;99614.03;6155902;23;19913;-79
2024/02/26 04:11:51;;;;;;;;;;;;;;;2.84;100.00;99622.53;6156219;23;19948;-78
2024/02/26 04:14:16;;;;;;;;;;;;;;;2.83;100.00;99624.34;6155041;23;19916;-80
2024/02/26 04:16:41;;;;;;;;;;;;;;;2.82;100.00;99621.88;6155673;23;19913;-79
2024/02/26 04:19:06;;;;;;;;;;;;;;;2.82;100.00;99621.88;6155222;23;19917;-79
2024/02/26 04:21:34;;;;;;;;;;;;;;;2.83;100.00;99624.34;6154672;23;20499;-79
2024/02/26 04:24:01;;;;;;;;;;;;;;;2.79;100.00;99632.84;6155066;23;19927;-79
2024/02/26 04:26:27;;;;;;;;;;;;;;;2.85;100.00;99632.16;6156017;23;20270;-79
2024/02/26 04:28:52;;;;;;;;;;;;;;;2.86;100.00;99634.63;6155235;23;19913;-79
2024/02/26 04:31:18;;;;;;;;;;;;;;;2.82;100.00;99628.03;6154517;23;19963;-78
2024/02/26 04:33:44;;;;;;;;;;;;;;;2.85;100.00;99640.94;6155588;23;20235;-79
2024/02/26 04:36:13;;;;;;;;;;;;;;;2.84;100.00;99647.25;6154413;23;19966;-79
2024/02/26 04:38:39;;;;;;;;;;;;;;;2.83;100.00;99642.94;6155351;23;19967;-78
2024/02/26 04:41:04;;;;;;;;;;;;;;;2.83;100.00;99640.28;6155978;23;19948;-78
2024/02/26 04:43:29;;;;;;;;;;;;;;;2.80;100.00;99630.03;6154480;23;19967;-78
2024/02/26 04:45:56;;;;;;;;;;;;;;;2.79;100.00;99644.31;6154406;23;19959;-79
2024/02/26 04:48:22;;;;;;;;;;;;;;;2.80;100.00;99647.78;6155342;23;19913;-79
2024/02/26 04:50:48;;;;;;;;;;;;;;;2.72;100.00;99646.88;6155279;23;19916;-80
2024/02/26 04:53:13;;;;;;;;;;;;;;;2.69;100.00;99654.34;6154632;23;20348;-79
2024/02/26 04:55:38;;;;;;;;;;;;;;;2.75;100.00;99666.94;6155563;23;20547;-78
2024/02/26 04:58:06;;;;;;;;;;;;;;;2.73;100.00;99663.63;6155463;23;20401;-76
2024/02/26 05:00:31;;;;;;;;;;;;;;;2.69;100.00;99660.50;6155120;23;19924;-76
2024/02/26 05:03:00;;;;;;;;;;;;;;;2.67;100.00;99666.97;6156895;23;19916;-80
2024/02/26 05:05:25;;;;;;;;;;;;;;;2.66;100.00;99660.00;6156322;23;19979;-79
2024/02/26 05:07:50;;;;;;;;;;;;;;;2.67;100.00;99674.94;6155969;23;19948;-84
2024/02/26 05:10:15;;;;;;;;;;;;;;;2.64;100.00;99672.66;6156414;23;20012;-77
2024/02/26 05:12:42;;;;;;;;;;;;;;;2.62;100.00;99664.84;6156389;23;19912;-77
2024/02/26 05:15:08;;;;;;;;;;;;;;;2.55;100.00;99670.03;6156294;23;19913;-77
2024/02/26 05:17:33;;;;;;;;;;;;;;;2.54;100.00;99673.69;6157154;23;19988;-77
2024/02/26 05:19:58;;;;;;;;;;;;;;;2.52;100.00;99675.69;6156815;23;19959;-77
2024/02/26 05:22:30;;;;;;;;;;;;;;;2.53;100.00;99676.53;6152413;23;19921;-78
2024/02/26 05:24:56;;;;;;;;;;;;;;;2.53;100.00;99679.19;6153788;23;20006;-78
2024/02/26 05:27:26;;;;;;;;;;;;;;;2.50;100.00;99672.38;6156051;23;19912;-78
2024/02/26 05:29:58;;;;;;;;;;;;;;;2.51;100.00;99676.69;6156724;23;19928;-78
2024/02/26 05:32:35;;;;;;;;;;;;;;;2.48;100.00;99679.69;6156946;23;20194;-78
2024/02/26 05:35:00;;;;;;;;;;;;;;;2.46;100.00;99681.72;6155083;23;19928;-77
2024/02/26 05:37:25;;;;;;;;;;;;;;;2.42;100.00;99675.09;6155587;23;19978;-78
2024/02/26 05:39:52;;;;;;;;;;;;;;;2.42;100.00;99678.56;6107404;23;19963;-78
2024/02/26 05:42:17;;;;;;;;;;;;;;;2.44;100.00;99678.41;6156425;23;19919;-78
2024/02/26 05:44:42;;;;;;;;;;;;;;;2.46;100.00;99687.03;6157011;23;19987;-78
2024/02/26 05:47:10;;;;;;;;;;;;;;;2.42;100.00;99686.53;6131209;23;19913;-77
2024/02/26 05:49:39;;;;;;;;;;;;;;;2.46;100.00;99692.34;6156656;23;19916;-78
2024/02/26 05:52:08;;;;;;;;;;;;;;;2.48;100.00;99684.19;6097817;23;19922;-77
2024/02/26 05:54:33;;;;;;;;;;;;;;;2.43;100.00;99690.00;6098156;23;19992;-77
2024/02/26 05:56:58;;;;;;;;;;;;;;;2.40;100.00;99690.34;6096696;23;19948;-77
2024/02/26 05:59:24;;;;;;;;;;;;;;;2.41;100.00;99694.66;6106316;23;19921;-77
2024/02/26 06:01:49;;;;;;;;;;;;;;;2.42;100.00;99691.84;6119441;23;19917;-77
2024/02/26 06:04:14;;;;;;;;;;;;;;;2.45;100.00;99701.31;6105013;23;19941;-78
2024/02/26 06:06:40;;;;;;;;;;;;;;;2.49;100.00;99707.09;6099780;23;19977;-77
2024/02/26 06:09:05;;;;;;;;;;;;;;;2.41;100.00;99702.63;6099858;23;20321;-78
2024/02/26 06:11:30;;;;;;;;;;;;;;;2.38;100.00;99709.09;6098574;23;19960;-78
2024/02/26 06:14:02;;;;;;;;;;;;;;;2.38;100.00;99710.94;6097756;23;19914;-77
2024/02/26 06:16:27;;;;;;;;;;;;;;;2.42;100.00;99717.56;6097999;23;19918;-78
2024/02/26 06:18:52;;;;;;;;;;;;;;;2.42;100.00;99715.72;6098768;23;19913;-76
2024/02/26 06:21:17;;;;;;;;;;;;;;;2.41;100.00;99710.59;6097410;23;20000;-77
2024/02/26 06:23:43;;;;;;;;;;;;;;;2.42;100.00;99718.38;6099329;23;19913;-77
2024/02/26 06:26:08;;;;;;;;;;;;;;;2.39;100.00;99723.22;6102291;23;19945;-77
2024/02/26 06:28:35;;;;;;;;;;;;;;;2.41;100.00;99731.84;6118445;23;19937;-77
2024/02/26 06:31:00;;;;;;;;;;;;;;;2.43;100.00;99721.91;6108865;23;19929;-77
2024/02/26 06:33:26;;;;;;;;;;;;;;;2.46;100.00;99716.25;6105828;23;20372;-77
2024/02/26 06:35:51;;;;;;;;;;;;;;;2.46;100.00;99720.72;6102728;23;19914;-77
2024/02/26 06:38:17;;;;;;;;;;;;;;;2.43;100.00;99732.53;6098579;23;19917;-77
2024/02/26 06:40:42;;;;;;;;;;;;;;;2.41;100.00;99737.97;6099359;23;19968;-78
2024/02/26 06:43:07;;;;;;;;;;;;;;;2.43;100.00;99729.84;6099425;23;20271;-77
2024/02/26 06:45:34;;;;;;;;;;;;;;;2.42;100.00;99736.97;6099678;23;19913;-77
2024/02/26 06:48:00;;;;;;;;;;;;;;;2.44;100.00;99742.16;6099953;23;19914;-77
2024/02/26 06:50:25;;;;;;;;;;;;;;;2.42;100.00;99734.31;6108922;23;19971;-76
2024/02/26 06:52:50;;;;;;;;;;;;;;;2.42;100.00;99736.16;6129966;23;19940;-75
2024/02/26 06:55:15;;;;;;;;;;;;;;;2.46;100.00;99742.81;6139175;23;19937;-77
2024/02/26 06:57:41;;;;;;;;;;;;;;;2.50;100.00;99741.44;6147890;23;19913;-77
2024/02/26 07:00:06;;;;;;;;;;;;;;;2.51;100.00;99735.13;6134221;23;19943;-77
2024/02/26 07:02:31;;;;;;;;;;;;;;;2.50;100.00;99745.94;6131064;23;19945;-77
2024/02/26 07:04:58;;;;;;;;;;;;;;;2.50;100.00;99735.31;6138863;23;19921;-75
2024/02/26 07:07:23;;;;;;;;;;;;;;;2.48;100.00;99750.59;6158470;23;19924;-77
2024/02/26 07:09:48;;;;;;;;;;;;;;;2.46;100.00;99748.13;6160369;23;19931;-77
2024/02/26 07:12:14;;;;;;;;;;;;;;;2.50;100.00;99745.94;6160266;23;20032;-77
2024/02/26 07:14:39;;;;;;;;;;;;;;;2.54;100.00;99750.72;6160792;23;19924;-77
2024/02/26 07:17:04;;;;;;;;;;;;;;;2.52;100.00;99742.09;6164937;23;20034;-75
2024/02/26 07:19:29;;;;;;;;;;;;;;;2.53;100.00;99748.25;6163053;23;20042;-77
2024/02/26 07:21:55;;;;;;;;;;;;;;;2.58;100.00;99749.41;6167259;23;19914;-76
2024/02/26 07:24:20;;;;;;;;;;;;;;;2.58;100.00;99748.53;6178819;23;19923;-76
2024/02/26 07:26:45;;;;;;;;;;;;;;;2.55;100.00;99746.25;6166933;23;19912;-77
2024/02/26 07:29:14;;;;;;;;;;;;;;;2.60;100.00;99756.38;6159152;23;19971;-77
2024/02/26 07:31:39;;;;;;;;;;;;;;;2.62;100.00;99751.72;6159077;23;19983;-77
2024/02/26 07:34:04;;;;;;;;;;;;;;;2.61;100.00;99761.50;6158777;23;19913;-77
2024/02/26 07:36:36;;;;;;;;;;;;;;;2.62;100.00;99765.81;6148916;23;19927;-78
2024/02/26 07:39:05;;;;;;;;;;;;;;;2.65;100.00;99754.84;6158133;23;19913;-78
2024/02/26 07:41:48;;;;;;;;;;;;;;;2.68;100.00;99770.44;6155243;23;19979;-77
2024/02/26 07:44:13;;;;;;;;;;;;;;;2.69;100.00;99764.13;6154635;23;19913;-77
2024/02/26 07:46:38;;;;;;;;;;;;;;;2.69;100.00;99771.25;6156610;23;19913;-78
2024/02/26 07:49:03;;;;;;;;;;;;;;;2.70;100.00;99762.28;6154658;23;19913;-78
2024/02/26 07:51:29;;;;;;;;;;;;;;;2.75;100.00;99767.09;6154079;23;19913;-78
2024/02/26 07:53:54;;;;;;;;;;;;;;;2.76;100.00;99772.25;6155951;23;19919;-78
2024/02/26 07:56:22;;;;;;;;;;;;;;;2.80;100.00;99781.53;6155184;23;19951;-78
2024/02/26 07:58:47;;;;;;;;;;;;;;;2.78;100.00;99786.19;6154795;23;19936;-78
2024/02/26 08:01:15;;;;;;;;;;;;;;;2.80;100.00;99783.34;6155747;23;20344;-78
2024/02/26 08:03:40;;;;;;;;;;;;;;;2.80;100.00;99781.53;6155452;23;20381;-78
2024/02/26 08:06:07;;;;;;;;;;;;;;;2.81;100.00;99785.84;6154988;23;19990;-78
2024/02/26 08:08:32;;;;;;;;;;;;;;;2.84;100.00;99795.28;6129751;23;19991;-78
2024/02/26 08:10:57;;;;;;;;;;;;;;;2.90;100.00;99799.09;6154977;23;19999;-78
2024/02/26 08:13:22;;;;;;;;;;;;;;;2.91;100.00;99800.75;6155136;23;19915;-78
2024/02/26 08:15:48;;;;;;;;;;;;;;;2.93;100.00;99807.53;6154893;23;19995;-79
2024/02/26 08:18:13;;;;;;;;;;;;;;;2.95;100.00;99804.72;6154608;23;19912;-78
2024/02/26 08:20:38;;;;;;;;;;;;;;;2.93;100.00;99804.88;6154295;23;19920;-77
2024/02/26 08:23:04;;;;;;;;;;;;;;;2.95;100.00;99813.50;6155480;23;19912;-77
2024/02/26 08:25:29;;;;;;;;;;;;;;;2.96;100.00;99819.69;6155517;23;20290;-77
2024/02/26 08:27:54;;;;;;;;;;;;;;;3.01;100.00;99812.00;6154928;23;19952;-77
2024/02/26 08:30:19;;;;;;;;;;;;;;;3.04;100.00;99811.66;6155382;23;20320;-76
2024/02/26 08:32:46;;;;;;;;;;;;;;;3.06;100.00;99819.47;6157922;23;20246;-76
2024/02/26 08:35:12;;;;;;;;;;;;;;;3.08;100.00;99818.28;6156611;23;20278;-76
2024/02/26 08:37:41;;;;;;;;;;;;;;;3.12;100.00;99819.59;6150227;23;19951;-78
2024/02/26 08:40:09;;;;;;;;;;;;;;;3.12;100.00;99824.91;6155491;23;19989;-77
2024/02/26 08:42:34;;;;;;;;;;;;;;;3.10;100.00;99818.94;6155813;23;19916;-77
2024/02/26 08:45:01;;;;;;;;;;;;;;;3.13;100.00;99837.22;6157521;23;19913;-76
2024/02/26 08:47:26;;;;;;;;;;;;;;;3.07;100.00;99837.91;6156762;23;20315;-76
2024/02/26 08:49:53;;;;;;;;;;;;;;;3.14;100.00;99838.88;6156918;23;19971;-76
2024/02/26 08:52:19;;;;;;;;;;;;;;;3.17;100.00;99835.03;6157382;23;19912;-77
2024/02/26 08:54:44;;;;;;;;;;;;;;;3.21;100.00;99835.50;6157066;23;19916;-77
2024/02/26 08:57:09;;;;;;;;;;;;;;;3.16;100.00;99836.88;6156503;23;19919;-77
2024/02/26 08:59:35;;;;;;;;;;;;;;;3.19;100.00;99841.00;6157223;23;19991;-77
2024/02/26 09:02:00;;;;;;;;;;;;;;;3.23;100.00;99846.78;6157335;23;19923;-77
2024/02/26 09:04:27;;;;;;;;;;;;;;;3.23;100.00;99860.09;6156499;23;19913;-77
2024/02/26 09:06:52;;;;;;;;;;;;;;;3.27;100.00;99864.06;6156641;23;20326;-77
2024/02/26 09:09:17;;;;;;;;;;;;;;;3.32;100.00;99856.41;6156796;23;19916;-77
2024/02/26 09:11:42;;;;;;;;;;;;;;;3.34;100.00;99857.88;6157388;23;19916;-77
2024/02/26 09:14:08;;;;;;;;;;;;;;;3.32;100.00;99869.72;6155973;23;20349;-77
2024/02/26 09:16:33;;;;;;;;;;;;;;;3.37;100.00;99864.69;6157130;23;19913;-76
2024/02/26 09:18:58;;;;;;;;;;;;;;;3.41;100.00;99868.66;6156468;23;19939;-77
2024/02/26 09:21:26;;;;;;;;;;;;;;;3.40;100.00;99880.28;6156671;23;19917;-76
2024/02/26 09:23:51;;;;;;;;;;;;;;;3.43;100.00;99873.81;6158059;23;19913;-77
2024/02/26 09:26:16;;;;;;;;;;;;;;;3.41;100.00;99873.97;6157081;23;19928;-76
2024/02/26 09:28:42;;;;;;;;;;;;;;;3.39;100.00;99883.97;6157579;23;19955;-77
2024/02/26 09:31:07;;;;;;;;;;;;;;;3.41;100.00;99894.44;6158446;23;19959;-77
2024/02/26 09:33:33;;;;;;;;;;;;;;;3.41;100.00;99899.75;6158238;23;19916;-77
2024/02/26 09:35:58;;;;;;;;;;;;;;;3.44;100.00;99902.91;6179146;23;19916;-78
2024/02/26 09:38:23;;;;;;;;;;;;;;;3.49;100.00;99889.06;6172650;23;19975;-77
2024/02/26 09:40:49;;;;;;;;;;;;;;;3.51;100.00;99892.38;6159534;23;19943;-78
2024/02/26 09:43:15;;;;;;;;;;;;;;;3.58;100.00;99893.34;6157770;23;19939;-78
2024/02/26 09:45:40;;;;;;;;;;;;;;;3.65;100.00;99898.81;6157806;23;19920;-77
2024/02/26 09:48:05;;;;;;;;;;;;;;;3.63;100.00;99895.47;6156574;23;19917;-77
2024/02/26 09:50:31;;;;;;;;;;;;;;;3.64;100.00;99897.13;6129311;23;19919;-77
2024/02/26 09:52:57;;;;;;;;;;;;;;;3.72;100.00;99905.06;6158326;23;19921;-77
2024/02/26 09:55:22;;;;;;;;;;;;;;;3.73;100.00;99922.69;6157190;23;19920;-77
2024/02/26 09:57:47;;;;;;;;;;;;;;;3.84;100.00;99925.97;6156871;23;19917;-77
2024/02/26 10:00:19;;;;;;;;;;;;;;;3.88;100.00;99927.28;6134487;23;19909;-77
2024/02/26 10:02:45;;;;;;;;;;;;;;;3.98;100.00;99929.69;6173599;23;19956;-76
2024/02/26 10:05:11;;;;;;;;;;;;;;;3.92;100.00;99937.41;6172213;23;20277;-77
2024/02/26 10:07:36;;;;;;;;;;;;;;;3.90;100.00;99934.09;6159939;23;19920;-76
2024/02/26 10:10:01;;;;;;;;;;;;;;;3.94;100.00;99929.22;6132787;23;19913;-77
2024/02/26 10:12:28;;;;;;;;;;;;;;;3.86;100.00;99932.78;6156239;23;19915;-77
2024/02/26 10:14:54;;;;;;;;;;;;;;;3.83;100.00;99943.78;6131329;23;19913;-77
2024/02/26 10:17:19;;;;;;;;;;;;;;;3.85;100.00;99948.94;6159205;23;19912;-77
2024/02/26 10:19:44;;;;;;;;;;;;;;;3.86;100.00;99958.59;6131851;23;19913;-77
2024/02/26 10:22:22;;;;;;;;;;;;;;;3.82;100.00;99957.28;6152450;23;19932;-77
2024/02/26 10:24:47;;;;;;;;;;;;;;;3.81;100.00;99960.94;6133726;23;20014;-77
2024/02/26 10:27:12;;;;;;;;;;;;;;;3.84;100.00;99968.56;6159149;23;19916;-77
2024/02/26 10:29:42;;;;;;;;;;;;;;;3.78;100.00;99968.25;6151248;23;19920;-77
2024/02/26 10:32:28;;;;;;;;;;;;;;;3.74;100.00;99960.81;6174089;23;19924;-77
2024/02/26 10:35:15;;;;;;;;;;;;;;;3.73;100.00;99967.13;6161613;23;19922;-77
2024/02/26 10:37:41;;;;;;;;;;;;;;;3.76;100.00;99975.59;6158232;23;19939;-76
2024/02/26 10:43:02;;;;;;;;;;;;;;;3.77;100.00;99985.25;6156091;23;19920;-78
2024/02/26 10:45:33;;;;;;;;;;;;;;;3.75;100.00;99986.44;6160572;23;19937;-78
2024/02/26 10:48:10;;;;;;;;;;;;;;;3.73;100.00;99991.91;6159815;23;19916;-77
2024/02/26 10:50:44;;;;;;;;;;;;;;;3.74;100.00;100006.88;6161846;23;19940;-77
2024/02/26 10:53:21;;;;;;;;;;;;;;;3.72;100.00;100003.56;6164094;23;20337;-77
2024/02/26 10:55:48;;;;;;;;;;;;;;;3.78;100.00;100004.72;6173606;23;19917;-78
2024/02/26 10:58:13;;;;;;;;;;;;;;;3.82;100.00;100015.84;6179427;23;19963;-77
2024/02/26 11:00:39;;;;;;;;;;;;;;;3.82;100.00;100010.53;6142911;23;19909;-78
2024/02/26 11:03:05;;;;;;;;;;;;;;;3.81;100.00;100030.16;6161071;23;19917;-78
2024/02/26 11:05:31;;;;;;;;;;;;;;;3.83;100.00;100018.31;6133101;23;19920;-78
2024/02/26 11:07:57;;;;;;;;;;;;;;;3.86;100.00;100025.97;6133668;23;19909;-78
2024/02/26 11:10:22;;;;;;;;;;;;;;;3.87;100.00;100030.28;6132450;23;19912;-77
2024/02/26 11:12:47;;;;;;;;;;;;;;;3.88;100.00;100028.47;6158024;23;19908;-77
2024/02/26 11:15:13;;;;;;;;;;;;;;;3.81;100.00;100044.28;6158914;23;19913;-78
2024/02/26 11:17:38;;;;;;;;;;;;;;;3.89;100.00;100038.09;6130299;23;20003;-78
2024/02/26 11:20:03;;;;;;;;;;;;;;;3.87;100.00;100040.94;6154511;23;19927;-78
2024/02/26 11:22:29;;;;;;;;;;;;;;;3.85;100.00;100048.25;6155695;23;19991;-78
2024/02/26 11:24:57;;;;;;;;;;;;;;;3.85;100.00;100055.44;6154938;23;19952;-78
2024/02/26 11:27:23;;;;;;;;;;;;;;;3.87;100.00;100045.44;6154824;23;20000;-78
2024/02/26 11:29:52;;;;;;;;;;;;;;;3.79;100.00;100039.13;6128231;23;19916;-78
2024/02/26 11:32:17;;;;;;;;;;;;;;;3.85;100.00;100053.59;6154954;23;19920;-78
2024/02/26 11:34:43;;;;;;;;;;;;;;;3.84;100.00;100059.09;6154748;23;19974;-79
2024/02/26 11:37:13;;;;;;;;;;;;;;;3.85;100.00;100047.44;6129570;23;19920;-78
2024/02/26 11:39:39;;;;;;;;;;;;;;;3.86;100.00;100057.91;6154440;23;20312;-78
2024/02/26 11:42:08;;;;;;;;;;;;;;;3.86;100.00;100055.25;6143775;23;20301;-78
2024/02/26 11:44:39;;;;;;;;;;;;;;;3.87;100.00;100061.44;6154773;23;20212;-78
2024/02/26 11:47:33;;;;;;;;;;;;;;;3.82;100.00;100061.09;6153984;23;19936;-76
2024/02/26 11:49:58;;;;;;;;;;;;;;;3.84;100.00;100067.09;6134257;23;20161;-77
2024/02/26 11:52:24;;;;;;;;;;;;;;;3.79;100.00;100060.44;6154853;23;19912;-76
2024/02/26 11:54:49;;;;;;;;;;;;;;;3.80;100.00;100061.25;6153768;23;19912;-77
2024/02/26 11:57:22;;;;;;;;;;;;;;;3.80;100.00;100071.91;6153814;23;19913;-78
2024/02/26 11:59:47;;;;;;;;;;;;;;;3.83;100.00;100070.75;6155086;23;19913;-78
2024/02/26 12:02:18;;;;;;;;;;;;;;;3.82;100.00;100074.41;6154783;23;20242;-78
2024/02/26 12:04:43;;;;;;;;;;;;;;;3.78;100.00;100064.09;6152264;23;19948;-77
2024/02/26 12:07:08;;;;;;;;;;;;;;;3.82;100.00;100074.41;6154255;23;19917;-78
2024/02/26 12:09:38;;;;;;;;;;;;;;;3.83;100.00;100070.75;6152200;23;19924;-78
2024/02/26 12:12:06;;;;;;;;;;;;;;;3.84;100.00;100075.06;6158811;23;19920;-79
2024/02/26 12:14:37;;;;;;;;;;;;;;;3.82;100.00;100069.09;6184833;23;19916;-77
2024/02/26 12:17:05;;;;;;;;;;;;;;;3.81;100.00;100072.75;6184099;23;20241;-76
2024/02/26 12:19:30;;;;;;;;;;;;;;;3.82;100.00;100071.75;6182909;23;19923;-78
2024/02/26 12:21:56;;;;;;;;;;;;;;;3.86;100.00;100076.56;6185163;23;19912;-78
2024/02/26 12:24:21;;;;;;;;;;;;;;;3.88;100.00;100079.06;6184301;23;20318;-78
2024/02/26 12:26:48;;;;;;;;;;;;;;;3.87;100.00;100088.88;6183627;23;20115;-78
2024/02/26 12:29:13;;;;;;;;;;;;;;;3.88;100.00;100097.69;6184729;23;20317;-77
2024/02/26 12:31:39;;;;;;;;;;;;;;;3.89;100.00;100094.84;6184462;23;19947;-78
2024/02/26 12:34:04;;;;;;;;;;;;;;;3.88;100.00;100090.53;6157560;23;19912;-78
2024/02/26 12:36:29;;;;;;;;;;;;;;;3.88;100.00;100092.38;6184790;23;19990;-78
2024/02/26 12:38:54;;;;;;;;;;;;;;;3.94;100.00;100095.19;6158826;23;19964;-78
2024/02/26 12:41:39;;;;;;;;;;;;;;;3.91;100.00;100100.00;6154489;23;20392;-77
2024/02/26 12:44:04;;;;;;;;;;;;;;;3.90;100.00;100098.34;6129721;23;19940;-77